Time;durP1;ratioP1;P1;durP2;ratioP2;P2;SDS_P1;SDS_P2;PMS_P1;PMS_P2;Temp;Humidity;BMP_temperature;BMP_pressure;BME280_temperature;BME280_humidity;BME280_pressure;Samples;Min_cycle;Max_cycle;Signal;HPM_P1;HPM_P2
2021/04/29 00:00:35;;;;;;;2.13;1.92;;;21.20;44.00;;;;;;5095094;28;20020;-48
2021/04/29 00:03:01;;;;;;;2.47;1.33;;;21.10;44.00;;;;;;5094574;28;20038;-52
2021/04/29 00:05:28;;;;;;;2.83;1.35;;;21.20;44.00;;;;;;5094432;28;20084;-46
2021/04/29 00:07:53;;;;;;;2.05;1.33;;;21.20;44.00;;;;;;5094452;28;20036;-45
2021/04/29 00:10:27;;;;;;;2.90;1.40;;;21.20;44.00;;;;;;5093783;28;20102;-47
2021/04/29 00:12:52;;;;;;;1.88;1.15;;;21.20;44.00;;;;;;5087074;28;20039;-45
2021/04/29 00:15:18;;;;;;;4.38;1.23;;;21.10;43.90;;;;;;5093771;28;20028;-45
2021/04/29 00:17:44;;;;;;;4.13;1.85;;;21.20;44.00;;;;;;5089660;28;20397;-49
2021/04/29 00:20:14;;;;;;;1.63;1.10;;;21.20;44.00;;;;;;5092775;28;20110;-45
2021/04/29 00:22:41;;;;;;;2.67;1.50;;;21.10;44.00;;;;;;5093948;28;20078;-51
2021/04/29 00:25:07;;;;;;;1.75;1.25;;;21.20;44.10;;;;;;5086767;28;20051;-45
2021/04/29 00:27:33;;;;;;;4.55;1.50;;;21.10;44.10;;;;;;5094146;28;20496;-46
2021/04/29 00:29:59;;;;;;;2.42;1.15;;;21.20;44.10;;;;;;5093847;28;20028;-47
2021/04/29 00:32:24;;;;;;;2.75;1.17;;;21.10;44.10;;;;;;5093545;28;20047;-46
2021/04/29 00:34:50;;;;;;;2.88;1.10;;;21.20;44.10;;;;;;5094047;28;20021;-48
2021/04/29 00:37:16;;;;;;;1.70;1.08;;;21.20;44.20;;;;;;5092970;28;20036;-45
2021/04/29 00:39:41;;;;;;;1.63;1.15;;;21.20;44.10;;;;;;5094128;28;20053;-45
2021/04/29 00:42:07;;;;;;;2.80;1.30;;;21.20;44.20;;;;;;5093157;28;20051;-45
2021/04/29 00:44:33;;;;;;;2.03;1.27;;;21.20;44.20;;;;;;5093662;28;20040;-40
2021/04/29 00:47:00;;;;;;;1.65;1.25;;;21.10;44.10;;;;;;5093752;28;20031;-45
2021/04/29 00:49:26;;;;;;;2.13;1.20;;;21.20;44.20;;;;;;5093136;28;20042;-45
2021/04/29 00:51:51;;;;;;;1.80;1.17;;;21.20;44.20;;;;;;5093445;28;20022;-46
2021/04/29 00:54:17;;;;;;;2.58;1.00;;;21.20;44.30;;;;;;5092760;28;20464;-45
2021/04/29 00:56:43;;;;;;;1.17;1.02;;;21.10;44.20;;;;;;5094194;28;20376;-45
2021/04/29 00:59:09;;;;;;;1.58;0.98;;;21.20;44.30;;;;;;5092765;28;20040;-48
2021/04/29 01:01:35;;;;;;;2.58;1.23;;;21.10;44.20;;;;;;5093951;28;20377;-45
2021/04/29 01:04:16;;;;;;;2.15;1.23;;;21.20;44.30;;;;;;5093405;28;20040;-45
2021/04/29 01:06:54;;;;;;;1.70;1.00;;;21.10;44.20;;;;;;5094028;28;20016;-50
2021/04/29 01:09:40;;;;;;;3.72;1.50;;;21.10;44.20;;;;;;5092637;28;20069;-41
2021/04/29 01:12:20;;;;;;;2.10;1.20;;;21.20;44.30;;;;;;5088711;28;20465;-53
2021/04/29 01:14:49;;;;;;;1.55;1.15;;;21.20;44.30;;;;;;5086359;28;20031;-45
2021/04/29 01:17:17;;;;;;;1.42;1.15;;;21.10;44.30;;;;;;5091720;28;20485;-47
2021/04/29 01:19:50;;;;;;;1.52;1.20;;;21.10;44.30;;;;;;5093789;28;20036;-45
2021/04/29 01:22:17;;;;;;;1.40;1.13;;;21.20;44.40;;;;;;5092560;28;20058;-45
2021/04/29 01:24:49;;;;;;;3.28;1.42;;;21.10;44.30;;;;;;5093242;28;20028;-46
2021/04/29 01:27:16;;;;;;;2.60;1.20;;;21.10;44.30;;;;;;5092492;28;20031;-45
2021/04/29 01:29:43;;;;;;;2.45;1.30;;;21.10;44.40;;;;;;5093172;28;20043;-45
2021/04/29 01:32:10;;;;;;;0.77;0.77;;;21.10;44.40;;;;;;5092391;28;20024;-45
2021/04/29 01:34:40;;;;;;;1.98;1.30;;;21.10;44.40;;;;;;5092670;28;20077;-45
2021/04/29 01:37:07;;;;;;;1.98;1.20;;;21.10;44.40;;;;;;5092670;28;20028;-55
2021/04/29 01:39:34;;;;;;;3.33;1.45;;;21.10;44.40;;;;;;5092709;28;20052;-44
2021/04/29 01:42:00;;;;;;;2.92;1.50;;;21.10;44.40;;;;;;5092731;28;20633;-45
2021/04/29 01:44:27;;;;;;;3.67;1.20;;;21.10;44.40;;;;;;5092156;28;20197;-45
2021/04/29 01:46:56;;;;;;;4.47;1.40;;;21.20;44.50;;;;;;5092785;28;20028;-46
2021/04/29 01:49:23;;;;;;;1.50;1.10;;;21.10;44.50;;;;;;5090814;28;20115;-45
2021/04/29 01:51:51;;;;;;;1.95;0.98;;;21.10;44.50;;;;;;5092982;28;20026;-47
2021/04/29 01:54:17;;;;;;;1.70;1.15;;;21.10;44.50;;;;;;5091699;28;20028;-45
2021/04/29 01:56:44;;;;;;;2.55;1.20;;;21.10;44.50;;;;;;5089473;28;20023;-43
2021/04/29 01:59:10;;;;;;;2.60;1.10;;;21.20;44.50;;;;;;5083290;28;20064;-45
2021/04/29 02:01:40;;;;;;;1.17;0.98;;;21.10;44.60;;;;;;5085438;28;20489;-46
2021/04/29 02:04:10;;;;;;;2.40;1.23;;;21.10;44.70;;;;;;5082312;28;20135;-53
2021/04/29 02:06:41;;;;;;;2.85;1.10;;;21.20;44.70;;;;;;5083791;28;20035;-52
2021/04/29 02:09:08;;;;;;;1.37;1.00;;;21.20;44.80;;;;;;5084546;28;20035;-52
2021/04/29 02:11:38;;;;;;;2.03;1.10;;;21.20;44.80;;;;;;5085395;28;20339;-49
2021/04/29 02:14:06;;;;;;;2.22;1.20;;;21.10;44.70;;;;;;5085913;28;20031;-53
2021/04/29 02:16:53;;;;;;;1.92;1.13;;;21.10;44.70;;;;;;5086795;28;20028;-43
2021/04/29 02:19:22;;;;;;;3.10;1.00;;;21.10;44.80;;;;;;5084580;28;20031;-47
2021/04/29 02:21:48;;;;;;;1.55;1.10;;;21.10;44.80;;;;;;5083335;28;20024;-50
2021/04/29 02:24:18;;;;;;;3.88;1.48;;;21.20;44.80;;;;;;5083468;28;20032;-50
2021/04/29 02:26:44;;;;;;;2.20;1.20;;;21.10;44.70;;;;;;5082466;28;21511;-46
2021/04/29 02:29:10;;;;;;;2.17;1.10;;;21.10;44.70;;;;;;5085286;28;20097;-48
2021/04/29 02:31:37;;;;;;;3.22;1.02;;;21.20;44.80;;;;;;5088418;28;20036;-46
2021/04/29 02:34:06;;;;;;;1.60;1.20;;;21.10;44.70;;;;;;5085663;28;20033;-50
2021/04/29 02:36:33;;;;;;;1.83;1.00;;;21.10;44.70;;;;;;5086112;28;20054;-48
2021/04/29 02:39:00;;;;;;;2.47;0.82;;;21.10;44.90;;;;;;5082571;28;20097;-43
2021/04/29 02:41:26;;;;;;;1.80;0.73;;;21.10;44.70;;;;;;5082246;28;20107;-45
2021/04/29 02:43:52;;;;;;;1.58;1.05;;;21.10;44.70;;;;;;5085107;28;20127;-45
2021/04/29 02:46:19;;;;;;;1.90;1.10;;;21.10;45.00;;;;;;5083598;28;20409;-45
2021/04/29 02:48:44;;;;;;;3.50;1.30;;;21.10;44.80;;;;;;5084950;28;20050;-43
2021/04/29 02:51:11;;;;;;;1.85;1.00;;;21.10;44.80;;;;;;5084348;28;20473;-49
2021/04/29 02:53:40;;;;;;;3.15;1.17;;;21.10;44.90;;;;;;5086842;28;20473;-45
2021/04/29 02:56:06;;;;;;;4.72;1.38;;;21.10;44.80;;;;;;5084098;28;20390;-51
2021/04/29 02:58:44;;;;;;;1.05;0.90;;;21.10;44.80;;;;;;5088953;28;20036;-44
2021/04/29 03:01:11;;;;;;;1.65;0.65;;;21.10;44.80;;;;;;5084026;28;20131;-45
2021/04/29 03:03:37;;;;;;;2.55;1.60;;;21.10;44.70;;;;;;5085996;28;20127;-47
2021/04/29 03:06:03;;;;;;;2.38;1.00;;;21.10;44.80;;;;;;5082127;28;20116;-42
2021/04/29 03:08:29;;;;;;;2.30;0.93;;;21.10;44.70;;;;;;5083803;28;20028;-52
2021/04/29 03:10:55;;;;;;;1.30;1.08;;;21.10;44.80;;;;;;5085209;28;20032;-49
2021/04/29 03:13:21;;;;;;;1.63;0.70;;;21.10;44.80;;;;;;5086383;28;20024;-42
2021/04/29 03:15:46;;;;;;;1.45;1.00;;;21.10;45.50;;;;;;5094598;28;20027;-48
2021/04/29 03:18:12;;;;;;;1.60;0.73;;;21.10;44.80;;;;;;5094723;28;20065;-45
2021/04/29 03:20:37;;;;;;;1.90;0.90;;;21.10;44.90;;;;;;5095545;28;20031;-45
2021/04/29 03:23:03;;;;;;;1.20;0.70;;;21.10;44.90;;;;;;5095757;28;20024;-46
2021/04/29 03:25:29;;;;;;;3.08;0.90;;;21.10;44.90;;;;;;5093487;28;20397;-48
2021/04/29 03:27:54;;;;;;;1.45;0.90;;;21.10;44.80;;;;;;5094990;28;20040;-45
2021/04/29 03:30:20;;;;;;;3.42;0.70;;;21.10;44.80;;;;;;5094616;28;20063;-45
2021/04/29 03:32:46;;;;;;;1.83;1.60;;;21.10;44.80;;;;;;5095206;28;20100;-45
2021/04/29 03:35:12;;;;;;;0.80;0.65;;;21.10;44.90;;;;;;5094418;28;20154;-48
2021/04/29 03:37:37;;;;;;;2.08;0.90;;;21.10;44.90;;;;;;5094989;28;20485;-48
2021/04/29 03:40:04;;;;;;;1.00;0.70;;;21.10;44.90;;;;;;5094857;28;20027;-41
2021/04/29 03:42:29;;;;;;;2.00;1.13;;;21.10;44.90;;;;;;5089846;28;20780;-42
2021/04/29 03:44:55;;;;;;;1.23;0.60;;;21.10;44.90;;;;;;5086386;28;20024;-46
2021/04/29 03:47:21;;;;;;;1.52;0.75;;;21.10;44.80;;;;;;5087315;28;20144;-51
2021/04/29 03:49:47;;;;;;;1.95;1.25;;;21.10;44.80;;;;;;5087943;28;20149;-45
2021/04/29 03:52:12;;;;;;;2.22;1.00;;;21.10;44.90;;;;;;5087911;28;20063;-47
2021/04/29 03:54:38;;;;;;;1.15;0.93;;;21.10;44.90;;;;;;5087618;28;20099;-46
2021/04/29 03:57:04;;;;;;;1.02;0.73;;;21.10;44.80;;;;;;5089234;28;20477;-46
2021/04/29 03:59:29;;;;;;;1.30;0.77;;;21.10;44.90;;;;;;5088992;28;20147;-46
2021/04/29 04:01:55;;;;;;;1.77;0.80;;;21.10;44.90;;;;;;5085866;28;20135;-47
2021/04/29 04:04:21;;;;;;;1.10;0.73;;;21.10;44.80;;;;;;5086835;28;20044;-47
2021/04/29 04:06:46;;;;;;;1.02;0.63;;;21.10;44.80;;;;;;5092574;28;20438;-48
2021/04/29 04:09:12;;;;;;;0.90;0.65;;;21.10;44.90;;;;;;5086188;28;20082;-46
2021/04/29 04:11:38;;;;;;;1.08;0.70;;;21.10;44.80;;;;;;5090058;28;20040;-45
2021/04/29 04:14:03;;;;;;;1.17;0.70;;;21.10;45.50;;;;;;5089418;28;20024;-46
2021/04/29 04:16:29;;;;;;;2.50;1.38;;;21.10;44.80;;;;;;5087580;28;20028;-45
2021/04/29 04:18:56;;;;;;;1.63;0.90;;;21.10;44.80;;;;;;5090134;28;20064;-47
2021/04/29 04:21:22;;;;;;;1.33;0.88;;;21.10;44.80;;;;;;5090336;28;20035;-45
2021/04/29 04:23:48;;;;;;;4.45;0.82;;;21.10;44.70;;;;;;5086955;28;20028;-42
2021/04/29 04:26:13;;;;;;;1.65;0.80;;;21.10;44.70;;;;;;5084863;28;20028;-48
2021/04/29 04:28:39;;;;;;;1.10;0.63;;;21.10;44.70;;;;;;5091997;28;20071;-45
2021/04/29 04:31:05;;;;;;;2.90;0.80;;;21.10;44.70;;;;;;5094181;28;20028;-45
2021/04/29 04:33:30;;;;;;;1.02;0.75;;;21.10;44.60;;;;;;5093698;28;20024;-48
2021/04/29 04:35:56;;;;;;;2.78;1.00;;;21.10;44.70;;;;;;5094415;28;20025;-47
2021/04/29 04:38:22;;;;;;;1.17;0.50;;;21.10;44.60;;;;;;5084584;28;20096;-45
2021/04/29 04:40:47;;;;;;;3.60;0.80;;;21.10;44.70;;;;;;5094093;28;20028;-46
2021/04/29 04:43:13;;;;;;;1.83;0.90;;;21.10;44.60;;;;;;5092795;28;20462;-45
2021/04/29 04:45:43;;;;;;;1.33;0.75;;;21.10;44.70;;;;;;5094204;28;20465;-44
2021/04/29 04:48:09;;;;;;;0.82;0.55;;;21.10;44.60;;;;;;5091721;28;20043;-53
2021/04/29 04:50:35;;;;;;;3.00;0.90;;;21.10;44.60;;;;;;5085670;28;20035;-45
2021/04/29 04:53:00;;;;;;;3.05;0.60;;;21.10;44.60;;;;;;5092394;28;20028;-45
2021/04/29 04:55:26;;;;;;;1.27;0.60;;;21.10;44.60;;;;;;5092848;28;20038;-45
2021/04/29 04:57:52;;;;;;;1.35;0.80;;;21.10;44.70;;;;;;5093577;28;20216;-46
2021/04/29 05:00:18;;;;;;;1.13;0.50;;;21.10;44.80;;;;;;5092577;28;20027;-46
2021/04/29 05:02:44;;;;;;;2.35;1.48;;;21.10;44.90;;;;;;5093504;28;20027;-45
2021/04/29 05:05:10;;;;;;;3.05;0.90;;;21.10;44.90;;;;;;5092756;28;20052;-54
2021/04/29 05:07:36;;;;;;;1.13;0.60;;;21.10;44.90;;;;;;5085787;28;20064;-46
2021/04/29 05:10:03;;;;;;;1.48;0.60;;;21.10;44.70;;;;;;5094074;28;20097;-46
2021/04/29 05:12:28;;;;;;;2.95;1.08;;;21.10;44.80;;;;;;5092780;28;20028;-47
2021/04/29 05:14:54;;;;;;;1.60;0.70;;;21.10;45.20;;;;;;5093384;28;20043;-45
2021/04/29 05:17:20;;;;;;;3.40;0.77;;;21.10;45.40;;;;;;5092397;28;20457;-47
2021/04/29 05:19:45;;;;;;;2.85;0.80;;;21.20;45.60;;;;;;5092082;28;20039;-47
2021/04/29 05:22:14;;;;;;;8.73;1.13;;;21.20;46.40;;;;;;5092825;28;20024;-54
2021/04/29 05:24:41;;;;;;;7.80;2.03;;;21.10;46.50;;;;;;5093040;28;20465;-46
2021/04/29 05:27:06;;;;;;;2.28;0.90;;;21.10;46.20;;;;;;5093233;28;20046;-50
2021/04/29 05:29:32;;;;;;;3.78;1.02;;;21.10;46.30;;;;;;5092227;28;20035;-47
2021/04/29 05:31:57;;;;;;;8.13;1.42;;;21.10;46.80;;;;;;5093243;28;20020;-47
2021/04/29 05:34:23;;;;;;;5.18;1.05;;;21.10;46.70;;;;;;5092249;28;20028;-49
2021/04/29 05:36:49;;;;;;;2.55;0.88;;;21.10;46.70;;;;;;5092955;28;20020;-44
2021/04/29 05:39:15;;;;;;;4.95;0.98;;;21.10;46.70;;;;;;5092017;28;20040;-46
2021/04/29 05:41:40;;;;;;;3.15;0.80;;;21.10;47.10;;;;;;5092593;28;20508;-48
2021/04/29 05:44:06;;;;;;;1.80;0.77;;;21.10;46.90;;;;;;5088607;28;20012;-47
2021/04/29 05:46:31;;;;;;;4.95;0.95;;;21.20;47.00;;;;;;5090596;28;20291;-48
2021/04/29 05:48:57;;;;;;;1.45;0.60;;;21.20;47.00;;;;;;5092528;28;20085;-47
2021/04/29 05:51:23;;;;;;;6.15;0.95;;;21.20;47.20;;;;;;5092069;28;20028;-54
2021/04/29 05:53:48;;;;;;;7.03;1.10;;;21.20;47.30;;;;;;5091660;28;20028;-47
2021/04/29 05:56:15;;;;;;;6.18;1.63;;;21.20;48.10;;;;;;5091945;28;20034;-46
2021/04/29 05:58:41;;;;;;;7.50;1.20;;;21.20;47.50;;;;;;5092588;28;20090;-48
2021/04/29 06:01:08;;;;;;;5.60;1.08;;;21.20;47.70;;;;;;5071614;28;20038;-45
2021/04/29 06:03:33;;;;;;;2.65;1.05;;;21.20;47.70;;;;;;5076562;28;20127;-48
2021/04/29 06:05:59;;;;;;;8.52;1.25;;;21.20;47.90;;;;;;5093396;28;20521;-48
2021/04/29 06:08:25;;;;;;;12.07;3.05;;;21.20;47.50;;;;;;5092137;28;20039;-49
2021/04/29 06:10:50;;;;;;;3.47;1.60;;;21.10;46.60;;;;;;5092453;28;20026;-47
2021/04/29 06:13:16;;;;;;;2.50;1.40;;;20.50;45.80;;;;;;5091576;28;20413;-46
2021/04/29 06:15:41;;;;;;;4.53;1.58;;;19.60;47.60;;;;;;5092255;28;20028;-47
2021/04/29 06:18:07;;;;;;;2.15;1.58;;;19.00;48.40;;;;;;5092123;28;20123;-55
2021/04/29 06:20:33;;;;;;;3.47;1.40;;;18.80;48.80;;;;;;5090591;28;20039;-48
2021/04/29 06:22:58;;;;;;;3.75;1.83;;;18.50;49.20;;;;;;5091501;28;20047;-46
2021/04/29 06:25:24;;;;;;;3.53;1.38;;;18.40;49.90;;;;;;5093409;28;20110;-47
2021/04/29 06:27:50;;;;;;;4.15;1.80;;;18.10;50.30;;;;;;5092123;28;20500;-47
2021/04/29 06:30:17;;;;;;;2.55;1.40;;;18.10;50.70;;;;;;5090283;28;20032;-49
2021/04/29 06:32:43;;;;;;;2.42;1.45;;;17.90;50.40;;;;;;5092330;28;20031;-47
2021/04/29 06:35:09;;;;;;;5.18;2.03;;;17.60;51.00;;;;;;5092040;28;20024;-47
2021/04/29 06:37:35;;;;;;;5.93;1.98;;;17.70;51.20;;;;;;5085709;28;20024;-47
2021/04/29 06:40:01;;;;;;;3.60;1.88;;;17.70;51.10;;;;;;5090311;28;20035;-52
2021/04/29 06:42:28;;;;;;;5.55;1.90;;;17.50;51.20;;;;;;5089953;28;20038;-46
2021/04/29 06:44:54;;;;;;;7.97;2.40;;;17.40;51.70;;;;;;5091162;28;20063;-49
2021/04/29 06:47:26;;;;;;;3.63;2.38;;;17.40;51.40;;;;;;5079750;28;20125;-46
2021/04/29 06:49:52;;;;;;;4.10;1.95;;;17.50;51.10;;;;;;5091157;28;20031;-48
2021/04/29 06:52:20;;;;;;;4.20;2.50;;;17.60;51.20;;;;;;5091479;28;20027;-49
2021/04/29 06:54:46;;;;;;;4.07;1.92;;;17.60;51.10;;;;;;5091567;28;20055;-48
2021/04/29 06:57:12;;;;;;;4.47;2.33;;;17.80;50.90;;;;;;5090042;28;20024;-55
2021/04/29 06:59:37;;;;;;;4.55;2.15;;;17.80;50.70;;;;;;5090382;28;20036;-49
2021/04/29 07:02:03;;;;;;;5.05;1.40;;;18.40;49.30;;;;;;5090285;28;20039;-48
2021/04/29 07:04:29;;;;;;;4.00;1.52;;;19.00;48.20;;;;;;5090116;28;20496;-47
2021/04/29 07:06:54;;;;;;;3.55;1.20;;;19.40;47.60;;;;;;5091584;28;20024;-48
2021/04/29 07:09:20;;;;;;;1.48;1.00;;;19.60;48.00;;;;;;5090531;28;20031;-48
2021/04/29 07:11:46;;;;;;;2.72;1.20;;;19.80;47.20;;;;;;5091031;28;20449;-45
2021/04/29 07:14:11;;;;;;;1.70;1.40;;;19.90;47.00;;;;;;5090470;28;20028;-46
2021/04/29 07:16:37;;;;;;;3.03;1.00;;;20.00;46.90;;;;;;5090439;28;20028;-47
2021/04/29 07:19:03;;;;;;;4.22;1.23;;;20.10;46.80;;;;;;5091057;28;20039;-47
2021/04/29 07:21:28;;;;;;;1.70;1.00;;;20.10;46.70;;;;;;5090445;28;20036;-48
2021/04/29 07:23:54;;;;;;;1.75;0.98;;;20.20;46.70;;;;;;5091387;28;20020;-45
2021/04/29 07:26:20;;;;;;;5.47;1.20;;;20.20;46.60;;;;;;5089883;28;20024;-48
2021/04/29 07:28:45;;;;;;;1.52;1.00;;;20.20;46.50;;;;;;5091616;28;20043;-47
2021/04/29 07:31:12;;;;;;;1.55;1.00;;;20.30;46.50;;;;;;5087396;28;20036;-49
2021/04/29 07:33:39;;;;;;;3.42;1.20;;;20.40;46.50;;;;;;5089166;28;20016;-48
2021/04/29 07:36:06;;;;;;;2.13;1.13;;;20.40;46.50;;;;;;5088599;28;20024;-51
2021/04/29 07:38:32;;;;;;;1.30;0.85;;;20.40;46.40;;;;;;5089744;28;20043;-46
2021/04/29 07:40:57;;;;;;;2.65;0.93;;;20.40;46.30;;;;;;5090753;28;20465;-50
2021/04/29 07:43:23;;;;;;;2.10;1.00;;;20.50;46.30;;;;;;5090287;28;20047;-46
2021/04/29 07:45:49;;;;;;;2.60;1.17;;;20.50;46.30;;;;;;5091098;28;20024;-50
2021/04/29 07:48:14;;;;;;;1.60;1.13;;;20.50;46.30;;;;;;5090963;28;20036;-47
2021/04/29 07:50:40;;;;;;;1.90;1.25;;;20.60;46.30;;;;;;5090344;28;20077;-48
2021/04/29 07:53:08;;;;;;;1.63;0.88;;;20.60;46.20;;;;;;5066039;28;20056;-45
2021/04/29 07:55:34;;;;;;;1.65;1.00;;;20.60;46.20;;;;;;5086627;28;20051;-47
2021/04/29 07:57:59;;;;;;;1.35;1.00;;;20.60;46.20;;;;;;5090743;28;20054;-46
2021/04/29 08:00:25;;;;;;;1.10;0.80;;;20.60;46.10;;;;;;5090462;28;20024;-49
2021/04/29 08:02:51;;;;;;;1.67;1.08;;;20.70;46.10;;;;;;5094445;28;20063;-51
2021/04/29 08:05:16;;;;;;;1.45;1.20;;;20.70;46.00;;;;;;5093901;28;20086;-53
2021/04/29 08:07:42;;;;;;;1.95;1.00;;;20.70;46.00;;;;;;5094400;28;20085;-46
2021/04/29 08:10:10;;;;;;;2.45;1.00;;;20.70;45.90;;;;;;5094239;28;20024;-46
2021/04/29 08:12:37;;;;;;;2.75;0.93;;;20.80;46.00;;;;;;5093555;28;20093;-48
2021/04/29 08:15:04;;;;;;;2.90;1.00;;;20.80;45.80;;;;;;5094659;28;20081;-50
2021/04/29 08:17:30;;;;;;;2.28;0.90;;;20.80;45.80;;;;;;5092858;28;20036;-49
2021/04/29 08:19:56;;;;;;;2.20;0.82;;;20.80;45.70;;;;;;5089796;28;20040;-45
2021/04/29 08:22:23;;;;;;;2.67;1.38;;;20.80;45.70;;;;;;5093076;28;20135;-47
2021/04/29 08:24:49;;;;;;;1.80;0.80;;;20.80;45.60;;;;;;5092354;28;20032;-55
2021/04/29 08:27:15;;;;;;;1.73;0.90;;;20.90;45.60;;;;;;5090322;28;20399;-48
2021/04/29 08:29:41;;;;;;;2.05;0.90;;;20.80;45.40;;;;;;5092308;28;20020;-51
2021/04/29 08:32:06;;;;;;;1.45;0.90;;;20.90;45.40;;;;;;5093837;28;20024;-48
2021/04/29 08:34:33;;;;;;;1.42;0.80;;;20.90;45.40;;;;;;5092948;28;20465;-50
2021/04/29 08:36:59;;;;;;;2.10;1.27;;;20.90;45.40;;;;;;5094225;28;20020;-47
2021/04/29 08:39:25;;;;;;;1.58;1.38;;;20.90;45.30;;;;;;5093249;28;20537;-49
2021/04/29 08:41:51;;;;;;;0.80;0.80;;;20.90;45.20;;;;;;5093419;28;20077;-46
2021/04/29 08:44:17;;;;;;;2.15;1.00;;;20.90;45.20;;;;;;5093954;28;20028;-47
2021/04/29 08:46:42;;;;;;;1.20;0.80;;;20.90;45.20;;;;;;5092972;28;20051;-47
2021/04/29 08:49:08;;;;;;;1.48;1.10;;;21.00;45.20;;;;;;5093546;28;20028;-48
2021/04/29 08:51:35;;;;;;;2.30;0.88;;;20.90;45.10;;;;;;5090848;28;20059;-46
2021/04/29 08:54:01;;;;;;;1.75;1.10;;;21.00;45.10;;;;;;5093980;28;20482;-46
2021/04/29 08:56:27;;;;;;;2.17;1.40;;;21.00;45.10;;;;;;5092624;28;20028;-46
2021/04/29 08:58:55;;;;;;;2.42;1.05;;;21.00;45.20;;;;;;5090215;28;20080;-46
2021/04/29 09:01:21;;;;;;;1.40;0.98;;;21.00;45.50;;;;;;5092909;28;20028;-53
2021/04/29 09:03:48;;;;;;;2.25;1.10;;;21.00;45.40;;;;;;5092875;28;20044;-46
2021/04/29 09:06:14;;;;;;;3.63;1.10;;;21.00;45.40;;;;;;5089811;28;20388;-48
2021/04/29 09:08:41;;;;;;;2.15;1.23;;;21.00;45.40;;;;;;5083579;28;20609;-48
2021/04/29 09:11:18;;;;;;;1.45;0.90;;;21.00;45.30;;;;;;5087677;28;20039;-47
2021/04/29 09:13:57;;;;;;;2.10;1.30;;;21.10;45.30;;;;;;5091167;28;20047;-50
2021/04/29 09:16:22;;;;;;;2.50;1.10;;;21.10;45.30;;;;;;5091048;28;20499;-52
2021/04/29 09:18:49;;;;;;;2.08;1.13;;;21.00;45.20;;;;;;5092814;28;20039;-50
2021/04/29 09:21:16;;;;;;;1.20;0.90;;;21.10;45.20;;;;;;5088100;28;20461;-45
2021/04/29 09:23:44;;;;;;;1.73;1.13;;;21.10;45.20;;;;;;5091704;28;20024;-47
2021/04/29 09:26:12;;;;;;;1.38;0.95;;;21.00;45.10;;;;;;5091177;28;20031;-48
2021/04/29 09:28:45;;;;;;;2.38;1.15;;;21.10;45.10;;;;;;5088844;28;20044;-52
2021/04/29 09:31:12;;;;;;;2.65;0.90;;;21.10;45.10;;;;;;5082202;28;20024;-47
2021/04/29 09:33:40;;;;;;;1.45;1.10;;;21.10;45.10;;;;;;5093710;28;20024;-46
2021/04/29 09:36:08;;;;;;;1.60;1.13;;;21.10;45.10;;;;;;5088124;28;20055;-49
2021/04/29 09:38:39;;;;;;;1.20;1.00;;;21.10;45.00;;;;;;5085508;28;20068;-48
2021/04/29 09:41:06;;;;;;;3.22;1.20;;;21.10;45.00;;;;;;5084334;28;20125;-50
2021/04/29 09:43:33;;;;;;;1.60;1.08;;;21.10;45.10;;;;;;5082751;28;20031;-48
2021/04/29 09:46:01;;;;;;;1.20;0.95;;;21.10;45.10;;;;;;5091186;28;20032;-51
2021/04/29 09:48:38;;;;;;;1.15;0.90;;;21.10;45.20;;;;;;5085761;28;20033;-47
2021/04/29 09:51:06;;;;;;;1.60;1.20;;;21.10;45.20;;;;;;5086760;28;20423;-49
2021/04/29 09:53:39;;;;;;;2.97;0.95;;;21.10;45.20;;;;;;5090245;28;20396;-50
2021/04/29 09:56:13;;;;;;;2.67;1.23;;;21.10;45.20;;;;;;5091665;28;20040;-51
2021/04/29 09:58:46;;;;;;;2.42;1.80;;;21.10;45.30;;;;;;5091578;28;20389;-47
2021/04/29 10:01:12;;;;;;;2.22;1.00;;;21.10;45.70;;;;;;5092507;28;20114;-48
2021/04/29 10:03:41;;;;;;;2.15;0.90;;;21.10;45.80;;;;;;5090917;28;20099;-46
2021/04/29 10:06:10;;;;;;;1.63;1.00;;;21.20;46.80;;;;;;5092323;28;20035;-48
2021/04/29 10:08:36;;;;;;;1.15;0.82;;;21.20;47.60;;;;;;5091381;28;20064;-50
2021/04/29 10:11:03;;;;;;;1.48;0.95;;;21.20;48.40;;;;;;5092321;28;20092;-50
2021/04/29 10:13:31;;;;;;;1.42;1.05;;;21.20;47.60;;;;;;5087289;28;20093;-50
2021/04/29 10:15:57;;;;;;;1.15;0.80;;;21.20;47.50;;;;;;5087464;28;20020;-50
2021/04/29 10:18:24;;;;;;;2.17;1.20;;;21.20;47.60;;;;;;5090513;28;20074;-54
2021/04/29 10:20:52;;;;;;;2.35;1.30;;;21.20;47.50;;;;;;5091378;28;20052;-52
2021/04/29 10:23:21;;;;;;;1.95;1.17;;;21.20;47.50;;;;;;5091484;28;20389;-51
2021/04/29 10:25:54;;;;;;;2.78;1.10;;;21.20;47.50;;;;;;5090979;28;20476;-51
2021/04/29 10:28:32;;;;;;;2.13;1.30;;;21.10;47.30;;;;;;5091618;28;20485;-46
2021/04/29 10:30:59;;;;;;;1.90;1.08;;;21.20;47.30;;;;;;5091316;28;20376;-51
2021/04/29 10:33:25;;;;;;;1.85;1.00;;;21.10;47.30;;;;;;5091758;28;20357;-53
2021/04/29 10:36:00;;;;;;;1.55;0.98;;;21.10;47.20;;;;;;5091560;28;20053;-50
2021/04/29 10:38:34;;;;;;;3.03;1.15;;;21.20;47.20;;;;;;5090945;28;20558;-56
2021/04/29 10:41:04;;;;;;;1.95;1.02;;;21.20;47.20;;;;;;5091784;28;20031;-52
2021/04/29 10:43:34;;;;;;;2.30;1.20;;;21.20;47.10;;;;;;5091371;28;20051;-50
2021/04/29 10:46:03;;;;;;;2.03;1.00;;;21.20;47.10;;;;;;5084135;28;20025;-51
2021/04/29 10:48:30;;;;;;;2.65;1.50;;;21.20;47.00;;;;;;5091035;28;20034;-52
2021/04/29 10:51:08;;;;;;;2.72;1.30;;;21.20;47.00;;;;;;5091160;28;20467;-50
2021/04/29 10:53:34;;;;;;;1.10;0.73;;;21.20;46.80;;;;;;5082710;28;20043;-49
2021/04/29 10:56:13;;;;;;;1.48;1.10;;;21.20;46.80;;;;;;5091644;28;20132;-48
2021/04/29 10:58:39;;;;;;;1.50;1.00;;;21.20;46.70;;;;;;5090106;28;20047;-47
2021/04/29 11:01:12;;;;;;;1.48;0.90;;;21.20;46.70;;;;;;5090135;28;20425;-47
2021/04/29 11:03:57;;;;;;;1.83;0.98;;;21.20;46.70;;;;;;5090437;28;20035;-50
2021/04/29 11:06:25;;;;;;;2.08;1.13;;;21.20;46.70;;;;;;5083878;28;20469;-50
2021/04/29 11:08:56;;;;;;;1.40;1.20;;;21.20;46.60;;;;;;5083480;28;20028;-50
2021/04/29 11:11:23;;;;;;;2.35;1.00;;;21.20;46.60;;;;;;5089252;28;20107;-50
2021/04/29 11:14:04;;;;;;;2.25;1.05;;;21.30;46.60;;;;;;5089571;28;20085;-49
2021/04/29 11:16:45;;;;;;;1.88;1.40;;;21.20;46.50;;;;;;5090247;28;20085;-51
2021/04/29 11:19:41;;;;;;;1.20;1.00;;;21.30;46.50;;;;;;5091135;28;20064;-47
2021/04/29 11:22:13;;;;;;;1.95;1.05;;;21.20;46.40;;;;;;5091101;28;20028;-47
2021/04/29 11:24:49;;;;;;;1.92;1.20;;;21.20;46.30;;;;;;5090324;28;20084;-51
2021/04/29 11:27:31;;;;;;;1.98;1.10;;;21.20;46.30;;;;;;5091664;28;20445;-49
2021/04/29 11:30:08;;;;;;;1.55;1.08;;;21.20;46.30;;;;;;5091093;28;20418;-48
2021/04/29 11:32:38;;;;;;;1.42;1.10;;;21.30;46.30;;;;;;5090338;28;20044;-48
2021/04/29 11:35:20;;;;;;;1.27;1.00;;;21.20;46.90;;;;;;5091410;28;20020;-49
2021/04/29 11:37:45;;;;;;;1.60;1.10;;;21.20;46.20;;;;;;5093827;28;20873;-53
2021/04/29 11:40:13;;;;;;;1.15;0.93;;;21.20;46.10;;;;;;5093408;28;20123;-44
2021/04/29 11:42:44;;;;;;;1.92;1.00;;;21.30;46.20;;;;;;5088490;28;20543;-49
2021/04/29 11:45:14;;;;;;;8.45;0.90;;;21.30;46.00;;;;;;5085497;28;20107;-48
2021/04/29 11:47:53;;;;;;;2.45;1.20;;;21.30;46.10;;;;;;5091031;28;20028;-47
2021/04/29 11:50:25;;;;;;;1.73;1.10;;;21.30;46.30;;;;;;5095343;28;20032;-47
2021/04/29 11:53:01;;;;;;;1.35;0.90;;;21.30;46.30;;;;;;5094096;28;20109;-49
2021/04/29 11:55:26;;;;;;;1.27;0.90;;;21.30;46.30;;;;;;5094964;28;20024;-54
2021/04/29 11:57:52;;;;;;;1.55;0.90;;;21.30;46.20;;;;;;5094205;28;20048;-49
2021/04/29 12:00:28;;;;;;;2.75;1.02;;;21.30;46.20;;;;;;5094575;28;20028;-46
2021/04/29 12:02:58;;;;;;;1.73;0.82;;;21.30;46.20;;;;;;5089694;28;20024;-52
2021/04/29 12:05:41;;;;;;;1.65;0.98;;;21.30;46.20;;;;;;5085963;28;20063;-48
2021/04/29 12:08:17;;;;;;;1.67;1.00;;;21.30;46.10;;;;;;5094039;28;20028;-46
2021/04/29 12:10:44;;;;;;;1.30;1.20;;;21.20;46.10;;;;;;5094011;28;20043;-47
2021/04/29 12:13:10;;;;;;;1.63;0.98;;;21.30;46.00;;;;;;5093820;28;20385;-50
2021/04/29 12:15:37;;;;;;;2.65;0.90;;;21.30;46.00;;;;;;5093783;28;20036;-52
2021/04/29 12:18:04;;;;;;;1.10;0.93;;;21.30;46.00;;;;;;5094087;28;20393;-49
2021/04/29 12:20:31;;;;;;;1.23;0.77;;;21.30;45.90;;;;;;5093923;28;20036;-55
2021/04/29 12:22:57;;;;;;;1.10;0.90;;;21.30;45.90;;;;;;5090006;28;20020;-46
2021/04/29 12:25:23;;;;;;;1.45;1.10;;;21.30;45.80;;;;;;5090771;28;20044;-49
2021/04/29 12:27:49;;;;;;;1.65;1.02;;;21.30;45.80;;;;;;5092186;28;20644;-49
2021/04/29 12:30:15;;;;;;;1.73;0.93;;;21.30;45.80;;;;;;5093605;28;20036;-47
2021/04/29 12:32:44;;;;;;;1.58;0.90;;;21.30;45.80;;;;;;5093478;28;20028;-46
2021/04/29 12:35:12;;;;;;;1.33;1.05;;;21.30;45.60;;;;;;5093375;28;20059;-48
2021/04/29 12:37:53;;;;;;;2.42;1.10;;;21.30;45.60;;;;;;5093322;28;20034;-48
2021/04/29 12:40:30;;;;;;;1.10;0.90;;;21.30;45.60;;;;;;5091913;28;20028;-43
2021/04/29 12:43:15;;;;;;;2.45;1.00;;;21.30;45.60;;;;;;5093899;28;20030;-47
2021/04/29 12:46:00;;;;;;;1.77;0.80;;;21.30;45.60;;;;;;5085299;28;20028;-48
2021/04/29 12:48:40;;;;;;;1.27;0.98;;;21.30;45.40;;;;;;5093004;28;20032;-48
2021/04/29 12:51:15;;;;;;;1.40;0.68;;;21.30;45.40;;;;;;5093564;28;20032;-48